Time,TemperatureF,DewpointF,PressureIn,WindDirection,WindDirectionDegrees,WindSpeedMPH,WindSpeedGustMPH,Humidity,HourlyPrecipIn,Conditions,Clouds,dailyrainin,SoftwareType,DateUTC
2013-06-08 00:04:00,53.3,33.0,29.52,WNW,285,9.0,-999.0,46,-99.99,,,0.00,weatherlink.com 1.10,2013-06-08 06:04:00,
2013-06-08 00:20:00,53.0,33.0,29.52,SSE,158,14.0,-999.0,47,-99.99,,,0.00,weatherlink.com 1.10,2013-06-08 06:20:00,
2013-06-08 00:35:00,52.5,33.0,29.51,NW,307,8.0,-999.0,48,-99.99,,,0.00,weatherlink.com 1.10,2013-06-08 06:35:00,
2013-06-08 00:50:00,52.3,33.0,29.52,WSW,242,13.0,-999.0,48,-99.99,,,0.00,weatherlink.com 1.10,2013-06-08 06:50:00,
2013-06-08 01:05:00,52.1,33.0,29.51,SSW,202,11.0,-999.0,48,-99.99,,,0.00,weatherlink.com 1.10,2013-06-08 07:05:00,
2013-06-08 01:20:00,51.8,32.0,29.50,NW,304,10.0,-999.0,48,-99.99,,,0.00,weatherlink.com 1.10,2013-06-08 07:20:00,
2013-06-08 01:35:00,51.8,32.0,29.50,WSW,244,6.0,-999.0,48,-99.99,,,0.00,weatherlink.com 1.10,2013-06-08 07:35:00,
2013-06-08 01:51:00,51.8,32.0,29.50,WSW,251,13.0,-999.0,48,-99.99,,,0.00,weatherlink.com 1.10,2013-06-08 07:51:00,
2013-06-08 02:06:00,51.5,33.0,29.48,West,264,13.0,-999.0,50,-99.99,,,0.00,weatherlink.com 1.10,2013-06-08 08:06:00,
2013-06-08 02:21:00,50.9,33.0,29.48,West,275,11.0,-999.0,51,-99.99,,,0.00,weatherlink.com 1.10,2013-06-08 08:21:00,
2013-06-08 02:36:00,50.4,33.0,29.48,NW,306,8.0,-999.0,52,-99.99,,,0.00,weatherlink.com 1.10,2013-06-08 08:36:00,
2013-06-08 02:51:00,50.5,33.0,29.46,West,259,16.0,-999.0,52,-99.99,,,0.00,weatherlink.com 1.10,2013-06-08 08:51:00,
2013-06-08 03:06:00,50.3,34.0,29.46,West,269,10.0,-999.0,53,-99.99,,,0.00,weatherlink.com 1.10,2013-06-08 09:06:00,
2013-06-08 03:22:00,50.1,33.0,29.46,West,270,12.0,-999.0,53,-99.99,,,0.00,weatherlink.com 1.10,2013-06-08 09:22:00,
2013-06-08 03:37:00,50.1,34.0,29.45,WSW,238,17.0,-999.0,55,-99.99,,,0.00,weatherlink.com 1.10,2013-06-08 09:37:00,
2013-06-08 03:52:00,50.1,34.0,29.44,WNW,300,5.0,-999.0,55,-99.99,,,0.00,weatherlink.com 1.10,2013-06-08 09:52:00,
2013-06-08 04:07:00,50.3,34.0,29.43,SW,234,9.0,-999.0,55,-99.99,,,0.00,weatherlink.com 1.10,2013-06-08 10:07:00,
2013-06-08 04:22:00,50.1,35.0,29.43,West,271,15.0,-999.0,56,-99.99,,,0.00,weatherlink.com 1.10,2013-06-08 10:22:00,
2013-06-08 04:37:00,49.8,34.0,29.44,WSW,240,18.0,-999.0,56,-99.99,,,0.00,weatherlink.com 1.10,2013-06-08 10:37:00,
2013-06-08 04:53:00,49.7,34.0,29.44,WSW,238,23.0,-999.0,56,-99.99,,,0.00,weatherlink.com 1.10,2013-06-08 10:53:00,
2013-06-08 05:08:00,49.6,34.0,29.44,SW,226,9.0,-999.0,56,-99.99,,,0.00,weatherlink.com 1.10,2013-06-08 11:08:00,
2013-06-08 05:23:00,49.4,35.0,29.45,WSW,250,19.0,-999.0,57,-99.99,,,0.00,weatherlink.com 1.10,2013-06-08 11:23:00,
2013-06-08 05:38:00,49.1,35.0,29.44,WSW,249,24.0,-999.0,58,-99.99,,,0.00,weatherlink.com 1.10,2013-06-08 11:38:00,
2013-06-08 05:53:00,49.0,35.0,29.44,NNW,330,11.0,-999.0,58,-99.99,,,0.00,weatherlink.com 1.10,2013-06-08 11:53:00,
2013-06-08 06:08:00,49.0,34.0,29.46,WNW,288,12.0,-999.0,57,-99.99,,,0.00,weatherlink.com 1.10,2013-06-08 12:08:00,
2013-06-08 06:23:00,48.8,34.0,29.48,NW,317,11.0,-999.0,58,-99.99,,,0.00,weatherlink.com 1.10,2013-06-08 12:23:00,
2013-06-08 06:39:00,48.7,34.0,29.48,NW,316,8.0,-999.0,58,-99.99,,,0.00,weatherlink.com 1.10,2013-06-08 12:39:00,
2013-06-08 06:54:00,50.3,35.0,29.51,NW,322,5.0,-999.0,56,-99.99,,,0.00,weatherlink.com 1.10,2013-06-08 12:54:00,
2013-06-08 07:09:00,50.2,35.0,29.52,WNW,288,1.0,-999.0,56,-99.99,,,0.00,weatherlink.com 1.10,2013-06-08 13:09:00,
2013-06-08 07:24:00,49.9,35.0,29.52,WNW,298,4.0,-999.0,57,-99.99,,,0.00,weatherlink.com 1.10,2013-06-08 13:24:00,
2013-06-08 07:39:00,44.0,39.0,29.52,NNW,327,11.0,-999.0,83,-99.99,,,0.00,weatherlink.com 1.10,2013-06-08 13:39:00,
2013-06-08 07:54:00,44.4,40.0,29.52,NNW,339,11.0,-999.0,85,-99.99,,,0.00,weatherlink.com 1.10,2013-06-08 13:54:00,
2013-06-08 08:10:00,42.9,40.0,29.53,NW,325,8.0,-999.0,90,-99.99,,,0.00,weatherlink.com 1.10,2013-06-08 14:10:00,
2013-06-08 08:25:00,42.3,40.0,29.53,NNW,329,5.0,-999.0,92,-99.99,,,0.00,weatherlink.com 1.10,2013-06-08 14:25:00,
2013-06-08 08:40:00,41.6,39.0,29.53,NW,321,5.0,-999.0,91,-99.99,,,0.00,weatherlink.com 1.10,2013-06-08 14:40:00,
2013-06-08 08:55:00,41.8,39.0,29.54,NNW,342,5.0,-999.0,91,-99.99,,,0.00,weatherlink.com 1.10,2013-06-08 14:55:00,
2013-06-08 09:10:00,44.8,41.0,29.55,NNW,340,8.0,-999.0,85,-99.99,,,0.00,weatherlink.com 1.10,2013-06-08 15:10:00,
2013-06-08 09:25:00,45.7,39.0,29.55,NW,324,4.0,-999.0,77,-99.99,,,0.00,weatherlink.com 1.10,2013-06-08 15:25:00,
2013-06-08 09:41:00,44.4,38.0,29.55,NNW,342,7.0,-999.0,79,-99.99,,,0.00,weatherlink.com 1.10,2013-06-08 15:41:00,
2013-06-08 09:56:00,45.2,38.0,29.56,NNW,335,3.0,-999.0,75,-99.99,,,0.00,weatherlink.com 1.10,2013-06-08 15:56:00,
2013-06-08 10:11:00,46.6,38.0,29.56,North,11,3.0,-999.0,71,-99.99,,,0.00,weatherlink.com 1.10,2013-06-08 16:11:00,
2013-06-08 10:26:00,45.9,36.0,29.57,NNW,347,4.0,-999.0,69,-99.99,,,0.00,weatherlink.com 1.10,2013-06-08 16:26:00,
2013-06-08 10:41:00,49.3,38.0,29.57,North,5,8.0,-999.0,66,-99.99,,,0.00,weatherlink.com 1.10,2013-06-08 16:41:00,
2013-06-08 10:56:00,50.1,38.0,29.58,NE,40,4.0,-999.0,63,-99.99,,,0.00,weatherlink.com 1.10,2013-06-08 16:56:00,
2013-06-08 11:12:00,51.5,38.0,29.57,NNW,331,4.0,-999.0,61,-99.99,,,0.00,weatherlink.com 1.10,2013-06-08 17:12:00,
2013-06-08 11:27:00,51.9,38.0,29.58,NNE,23,3.0,-999.0,59,-99.99,,,0.00,weatherlink.com 1.10,2013-06-08 17:27:00,
2013-06-08 11:42:00,52.2,38.0,29.58,NE,55,0.0,-999.0,59,-99.99,,,0.00,weatherlink.com 1.10,2013-06-08 17:42:00,
2013-06-08 11:57:00,52.3,37.0,29.58,NNW,333,0.0,-999.0,57,-99.99,,,0.00,weatherlink.com 1.10,2013-06-08 17:57:00,
2013-06-08 12:12:00,51.5,38.0,29.58,West,265,2.0,-999.0,60,-99.99,,,0.00,weatherlink.com 1.10,2013-06-08 18:12:00,
2013-06-08 12:27:00,50.7,38.0,29.58,SSW,198,1.0,-999.0,62,-99.99,,,0.00,weatherlink.com 1.10,2013-06-08 18:27:00,
2013-06-08 12:42:00,53.4,37.0,29.58,SW,232,5.0,-999.0,55,-99.99,,,0.00,weatherlink.com 1.10,2013-06-08 18:42:00,
2013-06-08 12:58:00,53.3,36.0,29.59,WSW,256,0.0,-999.0,53,-99.99,,,0.00,weatherlink.com 1.10,2013-06-08 18:58:00,
2013-06-08 13:13:00,55.2,33.0,29.60,NW,317,5.0,-999.0,43,-99.99,,,0.00,weatherlink.com 1.10,2013-06-08 19:13:00,
2013-06-08 13:28:00,55.8,32.0,29.60,WNW,298,8.0,-999.0,40,-99.99,,,0.00,weatherlink.com 1.10,2013-06-08 19:28:00,
2013-06-08 13:43:00,58.0,31.0,29.60,NW,323,5.0,-999.0,36,-99.99,,,0.00,weatherlink.com 1.10,2013-06-08 19:43:00,
2013-06-08 13:58:00,57.4,28.0,29.61,WNW,292,7.0,-999.0,33,-99.99,,,0.00,weatherlink.com 1.10,2013-06-08 19:58:00,
2013-06-08 14:13:00,58.3,28.0,29.61,NNW,342,5.0,-999.0,31,-99.99,,,0.00,weatherlink.com 1.10,2013-06-08 20:13:00,
2013-06-08 14:29:00,59.0,29.0,29.61,NW,304,8.0,-999.0,32,-99.99,,,0.00,weatherlink.com 1.10,2013-06-08 20:29:00,
2013-06-08 14:44:00,58.5,29.0,29.61,WSW,251,2.0,-999.0,32,-99.99,,,0.00,weatherlink.com 1.10,2013-06-08 20:44:00,
2013-06-08 14:59:00,58.0,28.0,29.62,NNW,346,8.0,-999.0,32,-99.99,,,0.00,weatherlink.com 1.10,2013-06-08 20:59:00,
2013-06-08 15:15:00,58.9,30.0,29.63,NW,325,7.0,-999.0,33,-99.99,,,0.00,weatherlink.com 1.10,2013-06-08 21:15:00,
2013-06-08 15:29:00,59.9,28.0,29.63,SW,221,4.0,-999.0,30,-99.99,,,0.00,weatherlink.com 1.10,2013-06-08 21:29:00,
2013-06-08 15:44:00,59.6,27.0,29.63,NW,326,5.0,-999.0,29,-99.99,,,0.00,weatherlink.com 1.10,2013-06-08 21:44:00,
2013-06-08 16:00:00,61.4,28.0,29.63,SW,223,7.0,-999.0,28,-99.99,,,0.00,weatherlink.com 1.10,2013-06-08 22:00:00,
2013-06-08 16:15:00,60.4,26.0,29.63,NW,318,6.0,-999.0,27,-99.99,,,0.00,weatherlink.com 1.10,2013-06-08 22:15:00,
2013-06-08 16:30:00,59.9,27.0,29.64,NW,310,7.0,-999.0,29,-99.99,,,0.00,weatherlink.com 1.10,2013-06-08 22:30:00,
2013-06-08 16:45:00,62.8,29.0,29.64,WNW,289,6.0,-999.0,28,-99.99,,,0.00,weatherlink.com 1.10,2013-06-08 22:45:00,
2013-06-08 17:00:00,61.2,28.0,29.64,NNW,329,4.0,-999.0,28,-99.99,,,0.00,weatherlink.com 1.10,2013-06-08 23:00:00,
2013-06-08 17:15:00,60.6,28.0,29.64,NNW,336,3.0,-999.0,29,-99.99,,,0.00,weatherlink.com 1.10,2013-06-08 23:15:00,
2013-06-08 17:31:00,60.8,28.0,29.64,NW,306,5.0,-999.0,29,-99.99,,,0.00,weatherlink.com 1.10,2013-06-08 23:31:00,
2013-06-08 17:46:00,61.7,29.0,29.63,North,360,10.0,-999.0,29,-99.99,,,0.00,weatherlink.com 1.10,2013-06-08 23:46:00,
2013-06-08 18:01:00,60.5,29.0,29.64,West,273,2.0,-999.0,30,-99.99,,,0.00,weatherlink.com 1.10,2013-06-09 00:01:00,
2013-06-08 18:16:00,60.3,28.0,29.64,NNW,333,7.0,-999.0,29,-99.99,,,0.00,weatherlink.com 1.10,2013-06-09 00:16:00,
2013-06-08 18:31:00,58.9,29.0,29.64,NNW,334,5.0,-999.0,32,-99.99,,,0.00,weatherlink.com 1.10,2013-06-09 00:31:00,
2013-06-08 18:47:00,59.5,29.0,29.64,NW,305,1.0,-999.0,32,-99.99,,,0.00,weatherlink.com 1.10,2013-06-09 00:47:00,
2013-06-08 19:02:00,60.8,30.0,29.64,NW,304,4.0,-999.0,31,-99.99,,,0.00,weatherlink.com 1.10,2013-06-09 01:02:00,
2013-06-08 19:17:00,60.5,30.0,29.65,NNW,336,0.0,-999.0,31,-99.99,,,0.00,weatherlink.com 1.10,2013-06-09 01:17:00,
2013-06-08 19:33:00,58.0,27.0,29.65,NW,325,2.0,-999.0,30,-99.99,,,0.00,weatherlink.com 1.10,2013-06-09 01:33:00,
2013-06-08 19:48:00,55.2,26.0,29.66,NNW,348,4.0,-999.0,33,-99.99,,,0.00,weatherlink.com 1.10,2013-06-09 01:48:00,
2013-06-08 20:03:00,54.7,26.0,29.66,NNW,340,4.0,-999.0,33,-99.99,,,0.00,weatherlink.com 1.10,2013-06-09 02:03:00,
2013-06-08 20:18:00,53.8,26.0,29.67,NNW,336,6.0,-999.0,34,-99.99,,,0.00,weatherlink.com 1.10,2013-06-09 02:18:00,
2013-06-08 20:33:00,52.8,24.0,29.68,NNW,338,7.0,-999.0,33,-99.99,,,0.00,weatherlink.com 1.10,2013-06-09 02:33:00,
2013-06-08 20:48:00,51.6,25.0,29.68,NW,323,7.0,-999.0,35,-99.99,,,0.00,weatherlink.com 1.10,2013-06-09 02:48:00,
2013-06-08 21:04:00,50.8,25.0,29.68,NNW,346,9.0,-999.0,37,-99.99,,,0.00,weatherlink.com 1.10,2013-06-09 03:04:00,
2013-06-08 21:19:00,50.5,24.0,29.69,NNE,17,9.0,-999.0,36,-99.99,,,0.00,weatherlink.com 1.10,2013-06-09 03:19:00,
2013-06-08 21:34:00,50.3,25.0,29.70,NNE,21,10.0,-999.0,37,-99.99,,,0.00,weatherlink.com 1.10,2013-06-09 03:34:00,
2013-06-08 21:49:00,50.2,23.0,29.70,NNE,17,10.0,-999.0,35,-99.99,,,0.00,weatherlink.com 1.10,2013-06-09 03:49:00,
2013-06-08 22:04:00,50.2,23.0,29.71,NNE,19,8.0,-999.0,35,-99.99,,,0.00,weatherlink.com 1.10,2013-06-09 04:04:00,
2013-06-08 22:19:00,49.9,23.0,29.71,NNE,27,6.0,-999.0,35,-99.99,,,0.00,weatherlink.com 1.10,2013-06-09 04:19:00,
2013-06-08 22:35:00,50.0,22.0,29.71,ENE,72,1.0,-999.0,34,-99.99,,,0.00,weatherlink.com 1.10,2013-06-09 04:35:00,
2013-06-08 22:50:00,49.9,22.0,29.71,NE,46,0.0,-999.0,34,-99.99,,,0.00,weatherlink.com 1.10,2013-06-09 04:50:00,
2013-06-08 23:05:00,49.8,22.0,29.72,East,88,3.0,-999.0,34,-99.99,,,0.00,weatherlink.com 1.10,2013-06-09 05:05:00,
2013-06-08 23:20:00,49.7,22.0,29.73,East,90,0.0,-999.0,34,-99.99,,,0.00,weatherlink.com 1.10,2013-06-09 05:20:00,
2013-06-08 23:35:00,49.6,23.0,29.73,East,90,0.0,-999.0,35,-99.99,,,0.00,weatherlink.com 1.10,2013-06-09 05:35:00,
2013-06-08 23:50:00,49.6,23.0,29.73,East,90,0.0,-999.0,35,-99.99,,,0.00,weatherlink.com 1.10,2013-06-09 05:50:00,